createdAt,value
2023-04-22T00:00:25.986Z,98548.75
2023-04-22T00:03:12.950Z,98555.72
2023-04-22T00:05:42.191Z,98548.84
2023-04-22T00:08:09.129Z,98543.66
2023-04-22T00:10:36.245Z,98542.78
2023-04-22T00:13:03.079Z,98538.50
2023-04-22T00:15:30.204Z,98542.84
2023-04-22T00:17:58.849Z,98545.44
2023-04-22T00:20:25.970Z,98543.78
2023-04-22T00:22:52.888Z,98540.28
2023-04-22T00:25:20.110Z,98537.72
2023-04-22T00:27:46.978Z,98535.06
2023-04-22T00:30:14.319Z,98530.72
2023-04-22T00:32:41.184Z,98535.91
2023-04-22T00:35:08.909Z,98532.34
2023-04-22T00:37:35.938Z,98537.44
2023-04-22T00:40:03.543Z,98534.66
2023-04-22T00:50:57.135Z,98539.34
2023-04-22T00:53:24.336Z,98535.91
2023-04-22T00:55:51.325Z,98535.91
2023-04-22T00:58:19.336Z,98535.06
2023-04-22T01:00:46.236Z,98536.81
2023-04-22T01:03:13.721Z,98537.63
2023-04-22T01:05:41.594Z,98539.34
2023-04-22T01:08:08.713Z,98538.59
2023-04-22T01:10:36.136Z,98545.63
2023-04-22T01:13:03.540Z,98550.09
2023-04-22T01:15:30.853Z,98549.31
2023-04-22T01:17:59.126Z,98545.97
2023-04-22T01:20:29.532Z,98546.97
2023-04-22T01:23:00.213Z,98547.13
2023-04-22T01:25:27.124Z,98545.56
2023-04-22T01:27:55.430Z,98549.94
2023-04-22T01:30:22.364Z,98546.50
2023-04-22T01:32:49.969Z,98554.41
2023-04-22T01:35:16.826Z,98550.13
2023-04-22T01:37:44.858Z,98541.59
2023-04-22T01:40:13.924Z,98552.06
2023-04-22T01:42:41.594Z,98552.97
2023-04-22T01:45:09.001Z,98557.41
2023-04-22T01:47:36.157Z,98547.03
2023-04-22T01:50:03.029Z,98550.53
2023-04-22T01:52:31.010Z,98548.88
2023-04-22T01:54:58.342Z,98542.00
2023-04-22T01:57:25.484Z,98550.53
2023-04-22T01:59:52.347Z,98545.16
2023-04-22T02:02:19.517Z,98546.81
2023-04-22T02:04:46.577Z,98550.28
2023-04-22T02:07:13.779Z,98551.31
2023-04-22T02:09:40.852Z,98541.75
2023-04-22T02:12:08.392Z,98544.50
2023-04-22T02:14:35.460Z,98547.28
2023-04-22T02:17:03.331Z,98542.09
2023-04-22T02:19:30.382Z,98547.28
2023-04-22T02:21:58.220Z,98548.16
2023-04-22T02:24:25.148Z,98545.53
2023-04-22T02:26:52.395Z,98548.09
2023-04-22T02:29:19.285Z,98546.44
2023-04-22T02:31:46.489Z,98550.81
2023-04-22T02:34:13.372Z,98546.59
2023-04-22T02:36:40.624Z,98545.00
2023-04-22T02:39:07.596Z,98544.28
2023-04-22T02:41:34.815Z,98549.59
2023-04-22T02:44:01.678Z,98549.78
2023-04-22T02:46:28.866Z,98556.00
2023-04-22T02:51:51.085Z,98549.19
2023-04-22T02:54:18.269Z,98549.22
2023-04-22T02:56:46.193Z,98547.53
2023-04-22T02:59:13.297Z,98547.56
2023-04-22T03:01:40.237Z,98545.88
2023-04-22T03:04:07.501Z,98538.09
2023-04-22T03:06:34.375Z,98540.78
2023-04-22T03:09:01.491Z,98544.13
2023-04-22T03:11:28.398Z,98544.97
2023-04-22T03:13:55.621Z,98551.72
2023-04-22T03:16:25.659Z,98551.66
2023-04-22T03:18:52.926Z,98552.38
2023-04-22T03:21:19.777Z,98554.94
2023-04-22T03:23:47.024Z,98555.66
2023-04-22T03:26:13.900Z,98558.13
2023-04-22T03:28:41.080Z,98557.22
2023-04-22T03:31:07.932Z,98565.88
2023-04-22T03:33:35.131Z,98564.13
2023-04-22T03:36:02.130Z,98562.44
2023-04-22T03:38:29.312Z,98561.63
2023-04-22T03:40:56.210Z,98568.59
2023-04-22T03:43:23.416Z,98565.16
2023-04-22T03:45:51.675Z,98570.34
2023-04-22T03:48:18.912Z,98572.03
2023-04-22T03:50:46.083Z,98571.91
2023-04-22T03:53:13.286Z,98567.66
2023-04-22T03:55:40.252Z,98569.22
2023-04-22T03:58:07.422Z,98572.56
2023-04-22T04:00:34.250Z,98572.41
2023-04-22T04:03:01.736Z,98574.81
2023-04-22T04:05:28.976Z,98573.75
2023-04-22T04:07:56.642Z,98582.19
2023-04-22T04:10:23.516Z,98586.31
2023-04-22T04:12:50.678Z,98583.47
2023-04-22T04:15:19.270Z,98580.59
2023-04-22T04:17:46.430Z,98581.88
2023-04-22T04:20:13.762Z,98594.53
2023-04-22T04:22:41.172Z,98586.34
2023-04-22T04:25:08.370Z,98589.44
2023-04-22T04:27:35.508Z,98591.59
2023-04-22T04:30:03.999Z,98596.38
2023-04-22T04:32:34.447Z,98600.25
2023-04-22T04:35:02.247Z,98598.00
2023-04-22T04:37:29.637Z,98602.63
2023-04-22T04:39:59.346Z,98598.56
2023-04-22T04:42:26.507Z,98596.06
2023-04-22T04:44:53.709Z,98603.59
2023-04-22T04:47:22.694Z,98601.00
2023-04-22T04:49:50.297Z,98602.28
2023-04-22T04:52:17.447Z,98604.00
2023-04-22T04:54:44.416Z,98612.94
2023-04-22T04:57:11.575Z,98610.72
2023-04-22T04:59:38.690Z,98608.72
2023-04-22T05:02:06.209Z,98608.66
2023-04-22T05:04:33.601Z,98614.41
2023-04-22T05:07:00.957Z,98613.97
2023-04-22T05:09:27.791Z,98613.50
2023-04-22T05:11:54.875Z,98616.50
2023-04-22T05:14:21.665Z,98611.44
2023-04-22T05:16:48.968Z,98618.88
2023-04-22T05:19:15.822Z,98608.63
2023-04-22T05:21:42.988Z,98611.53
2023-04-22T05:24:09.788Z,98611.75
2023-04-22T05:26:36.941Z,98615.34
2023-04-22T05:29:03.840Z,98616.06
2023-04-22T05:31:31.073Z,98614.31
2023-04-22T05:33:57.999Z,98618.31
2023-04-22T05:36:25.270Z,98615.00
2023-04-22T05:38:52.068Z,98614.44
2023-04-22T05:41:19.188Z,98612.94
2023-04-22T05:43:46.481Z,98613.28
2023-04-22T05:46:13.879Z,98616.88
2023-04-22T05:48:40.867Z,98619.00
2023-04-22T05:51:08.080Z,98618.63
2023-04-22T05:53:34.862Z,98626.47
2023-04-22T05:56:02.153Z,98629.50
2023-04-22T05:58:29.055Z,98620.28
2023-04-22T06:00:56.354Z,98632.81
2023-04-22T06:03:23.495Z,98624.50
2023-04-22T06:05:50.923Z,98623.94
2023-04-22T06:08:17.906Z,98625.00
2023-04-22T06:10:45.270Z,98628.94
2023-04-22T06:13:12.189Z,98623.97
2023-04-22T06:15:39.506Z,98625.94
2023-04-22T06:18:06.485Z,98624.66
2023-04-22T06:20:35.886Z,98619.50
2023-04-22T06:23:05.301Z,98625.09
2023-04-22T06:25:33.009Z,98621.31
2023-04-22T06:27:59.988Z,98624.03
2023-04-22T06:30:27.844Z,98630.97
2023-04-22T06:32:56.365Z,98631.69
2023-04-22T06:35:23.666Z,98648.47
2023-04-22T06:37:50.645Z,98643.50
2023-04-22T06:40:17.892Z,98635.88
2023-04-22T06:42:44.928Z,98638.47
2023-04-22T06:45:13.067Z,98641.41
2023-04-22T06:47:40.547Z,98637.16
2023-04-22T06:50:09.218Z,98629.94
2023-04-22T06:52:36.597Z,98628.19
2023-04-22T06:55:04.176Z,98630.75
2023-04-22T06:57:31.359Z,98625.34
2023-04-22T06:59:58.560Z,98628.97
2023-04-22T07:02:25.530Z,98631.53
2023-04-22T07:04:52.765Z,98626.69
2023-04-22T07:07:19.709Z,98624.63
2023-04-22T07:09:46.883Z,98626.91
2023-04-22T07:12:13.731Z,98628.28
2023-04-22T07:14:44.825Z,98627.00
2023-04-22T07:17:12.808Z,98635.75
2023-04-22T07:19:40.310Z,98634.72
2023-04-22T07:22:07.579Z,98635.22
2023-04-22T07:24:34.755Z,98627.19
2023-04-22T07:27:02.464Z,98632.31
2023-04-22T07:29:29.579Z,98639.28
2023-04-22T07:31:56.679Z,98630.16
2023-04-22T07:34:23.901Z,98639.19
2023-04-22T07:36:52.346Z,98634.66
2023-04-22T07:39:19.518Z,98636.75
2023-04-22T07:41:46.401Z,98635.69
2023-04-22T07:44:18.522Z,98639.94
2023-04-22T07:46:45.487Z,98637.00
2023-04-22T07:49:14.339Z,98640.41
2023-04-22T07:51:41.266Z,98635.56
2023-04-22T07:54:08.459Z,98629.44
2023-04-22T07:56:35.457Z,98632.53
2023-04-22T07:59:03.445Z,98637.53
2023-04-22T08:01:30.443Z,98631.41
2023-04-22T08:03:57.800Z,98635.69
2023-04-22T08:06:25.057Z,98634.84
2023-04-22T08:08:52.293Z,98637.19
2023-04-22T08:11:19.289Z,98634.41
2023-04-22T08:13:46.550Z,98625.47
2023-04-22T08:16:13.566Z,98631.66
2023-04-22T08:18:41.195Z,98638.16
2023-04-22T08:21:08.205Z,98633.84
2023-04-22T08:23:35.407Z,98639.41
2023-04-22T08:26:03.472Z,98645.78
2023-04-22T08:28:30.569Z,98650.28
2023-04-22T08:30:57.659Z,98640.28
2023-04-22T08:33:27.145Z,98641.09
2023-04-22T08:35:54.271Z,98638.88
2023-04-22T08:38:21.435Z,98639.22
2023-04-22T08:40:49.016Z,98642.25
2023-04-22T08:43:16.280Z,98638.41
2023-04-22T08:45:43.373Z,98646.44
2023-04-22T08:48:12.738Z,98646.19
2023-04-22T08:50:40.100Z,98650.34
2023-04-22T08:53:07.318Z,98640.94
2023-04-22T08:55:35.519Z,98635.56
2023-04-22T08:58:04.469Z,98642.50
2023-04-22T09:00:32.275Z,98645.44
2023-04-22T09:03:05.353Z,98641.47
2023-04-22T09:05:37.705Z,98639.88
2023-04-22T09:08:05.356Z,98634.25
2023-04-22T09:10:34.126Z,98644.63
2023-04-22T09:13:03.485Z,98636.31
2023-04-22T09:15:31.019Z,98644.06
2023-04-22T09:17:58.708Z,98640.00
2023-04-22T09:20:28.130Z,98638.72
2023-04-22T09:23:55.512Z,98626.97
2023-04-22T09:26:26.253Z,98632.28
2023-04-22T09:28:56.536Z,98628.34
2023-04-22T09:31:24.282Z,98630.72
2023-04-22T09:33:53.916Z,98618.63
2023-04-22T09:36:30.424Z,98627.00
2023-04-22T09:39:07.430Z,98618.38
2023-04-22T09:41:38.641Z,98624.63
2023-04-22T09:44:10.343Z,98619.31
2023-04-22T09:46:37.557Z,98614.97
2023-04-22T09:49:04.462Z,98616.22
2023-04-22T09:51:32.160Z,98622.06
2023-04-22T09:54:08.763Z,98610.97
2023-04-22T09:56:43.718Z,98611.38
2023-04-22T09:59:10.898Z,98601.59
2023-04-22T10:01:41.174Z,98609.47
2023-04-22T10:04:15.095Z,98599.28
2023-04-22T10:06:43.349Z,98604.56
2023-04-22T10:09:10.276Z,98602.59
2023-04-22T10:11:37.773Z,98597.78
2023-04-22T10:14:05.475Z,98594.38
2023-04-22T10:16:34.894Z,98594.34
2023-04-22T10:19:04.774Z,98597.47
2023-04-22T10:21:33.585Z,98590.59
2023-04-22T10:24:00.951Z,98589.41
2023-04-22T10:26:51.104Z,98583.16
2023-04-22T10:29:19.967Z,98582.00
2023-04-22T10:32:23.897Z,98584.66
2023-04-22T10:35:06.427Z,98586.22
2023-04-22T10:37:34.206Z,98580.50
2023-04-22T10:40:07.877Z,98573.44
2023-04-22T10:42:35.390Z,98572.75
2023-04-22T10:45:04.329Z,98565.63
2023-04-22T10:47:36.251Z,98565.88
2023-04-22T10:50:27.870Z,98574.56
2023-04-22T10:53:00.414Z,98568.91
2023-04-22T10:55:50.028Z,98572.59
2023-04-22T10:58:21.811Z,98564.75
2023-04-22T11:00:54.362Z,98572.25
2023-04-22T11:03:31.370Z,98563.41
2023-04-22T11:06:18.776Z,98558.88
2023-04-22T11:08:48.197Z,98570.63
2023-04-22T11:11:17.237Z,98561.19
2023-04-22T11:13:45.589Z,98562.34
2023-04-22T11:16:12.504Z,98566.91
2023-04-22T11:18:39.981Z,98563.34
2023-04-22T11:21:08.781Z,98557.88
2023-04-22T11:23:38.756Z,98554.47
2023-04-22T11:26:07.082Z,98552.09
2023-04-22T11:28:34.350Z,98558.75
2023-04-22T11:31:10.489Z,98554.97
2023-04-22T11:33:39.275Z,98551.69
2023-04-22T11:36:10.204Z,98559.25
2023-04-22T11:38:37.396Z,98554.56
2023-04-22T11:41:05.161Z,98558.84
2023-04-22T11:43:32.347Z,98552.19
2023-04-22T11:45:59.467Z,98553.19
2023-04-22T11:48:26.814Z,98557.59
2023-04-22T11:51:09.921Z,98556.84
2023-04-22T11:53:38.752Z,98559.28
2023-04-22T11:56:05.750Z,98553.78
2023-04-22T11:58:32.991Z,98557.34
2023-04-22T12:01:00.674Z,98555.72
2023-04-22T12:03:29.762Z,98554.88
2023-04-22T12:06:04.563Z,98564.00
2023-04-22T12:08:37.034Z,98559.94
2023-04-22T12:11:09.470Z,98562.22
2023-04-22T12:13:36.572Z,98555.38
2023-04-22T12:16:05.879Z,98558.28
2023-04-22T12:18:38.595Z,98559.81
2023-04-22T12:21:09.468Z,98560.31
2023-04-22T12:23:49.903Z,98558.25
2023-04-22T12:26:18.197Z,98561.16
2023-04-22T12:28:46.083Z,98554.41
2023-04-22T12:31:14.797Z,98552.63
2023-04-22T12:33:42.838Z,98554.06
2023-04-22T12:36:10.337Z,98550.34
2023-04-22T12:38:37.975Z,98545.25
2023-04-22T12:41:06.515Z,98546.88
2023-04-22T12:43:36.742Z,98541.38
2023-04-22T12:46:05.276Z,98541.59
2023-04-22T12:48:32.888Z,98548.81
2023-04-22T12:51:00.249Z,98547.00
2023-04-22T12:53:28.196Z,98543.19
2023-04-22T12:55:56.035Z,98541.53
2023-04-22T12:58:23.891Z,98528.03
2023-04-22T13:00:50.784Z,98531.69
2023-04-22T13:03:18.096Z,98529.81
2023-04-22T13:05:45.671Z,98532.09
2023-04-22T13:08:12.792Z,98530.97
2023-04-22T13:10:39.691Z,98534.84
2023-04-22T13:15:39.115Z,98528.50
2023-04-22T13:18:06.782Z,98536.72
2023-04-22T13:20:33.813Z,98531.97
2023-04-22T13:23:02.262Z,98529.28
2023-04-22T13:25:29.472Z,98537.34
2023-04-22T13:27:56.690Z,98522.88
2023-04-22T13:30:23.607Z,98530.53
2023-04-22T13:32:50.903Z,98519.28
2023-04-22T13:35:18.544Z,98523.78
2023-04-22T13:37:46.793Z,98519.91
2023-04-22T13:40:13.823Z,98517.88
2023-04-22T13:42:41.145Z,98519.06
2023-04-22T13:45:08.649Z,98519.25
2023-04-22T13:47:36.129Z,98522.44
2023-04-22T13:50:03.431Z,98521.41
2023-04-22T13:52:30.686Z,98526.97
2023-04-22T13:54:57.549Z,98523.28
2023-04-22T13:57:24.771Z,98522.94
2023-04-22T13:59:51.783Z,98517.69
2023-04-22T14:02:19.018Z,98520.28
2023-04-22T14:04:45.956Z,98519.22
2023-04-22T14:07:13.166Z,98525.19
2023-04-22T14:09:40.287Z,98515.69
2023-04-22T14:12:08.691Z,98520.41
2023-04-22T14:14:35.810Z,98522.00
2023-04-22T14:17:03.454Z,98521.69
2023-04-22T14:19:31.851Z,98515.75
2023-04-22T14:21:58.987Z,98520.34
2023-04-22T14:24:26.109Z,98517.75
2023-04-22T14:26:54.306Z,98526.25
2023-04-22T14:29:21.434Z,98523.00
2023-04-22T14:31:49.985Z,98521.59
2023-04-22T14:34:17.530Z,98514.13
2023-04-22T14:36:44.660Z,98514.38
2023-04-22T14:39:11.905Z,98508.88
2023-04-22T14:41:39.224Z,98507.66
2023-04-22T14:44:06.449Z,98509.53
2023-04-22T14:46:33.609Z,98506.38
2023-04-22T14:49:00.865Z,98498.47
2023-04-22T14:51:29.112Z,98503.38
2023-04-22T14:53:56.508Z,98496.41
2023-04-22T14:56:24.437Z,98499.28
2023-04-22T14:58:51.300Z,98499.31
2023-04-22T15:01:18.782Z,98502.06
2023-04-22T15:03:45.981Z,98502.38
2023-04-22T15:06:13.256Z,98496.91
2023-04-22T15:08:40.158Z,98500.75
2023-04-22T15:11:07.855Z,98498.13
2023-04-22T15:13:34.739Z,98501.09
2023-04-22T15:16:02.346Z,98502.09
2023-04-22T15:18:29.573Z,98496.03
2023-04-22T15:20:56.705Z,98498.13
2023-04-22T15:23:23.647Z,98491.97
2023-04-22T15:25:50.842Z,98492.47
2023-04-22T15:28:17.827Z,98485.16
2023-04-22T15:30:44.957Z,98493.78
2023-04-22T15:33:11.845Z,98489.00
2023-04-22T15:35:39.078Z,98488.03
2023-04-22T15:38:06.014Z,98492.59
2023-04-22T15:40:33.147Z,98491.94
2023-04-22T15:42:59.939Z,98486.31
2023-04-22T15:45:27.168Z,98492.47
2023-04-22T15:47:54.439Z,98493.06
2023-04-22T15:50:23.523Z,98492.50
2023-04-22T15:52:50.534Z,98488.41
2023-04-22T15:55:18.212Z,98489.13
2023-04-22T15:57:45.077Z,98494.34
2023-04-22T16:00:14.411Z,98495.91
2023-04-22T16:02:43.242Z,98497.72
2023-04-22T16:05:11.900Z,98489.41
2023-04-22T16:07:39.456Z,98486.03
2023-04-22T16:10:07.352Z,98483.06
2023-04-22T16:12:34.613Z,98484.28
2023-04-22T16:15:02.255Z,98484.63
2023-04-22T16:17:30.077Z,98482.78
2023-04-22T16:19:57.357Z,98489.22
2023-04-22T16:22:24.322Z,98486.38
2023-04-22T16:24:51.555Z,98484.50
2023-04-22T16:27:19.333Z,98496.56
2023-04-22T16:29:46.608Z,98483.78
2023-04-22T16:32:13.619Z,98489.34
2023-04-22T16:34:40.835Z,98487.09
2023-04-22T16:37:08.028Z,98486.94
2023-04-22T16:39:35.507Z,98482.03
2023-04-22T16:42:03.083Z,98491.47
2023-04-22T16:44:30.673Z,98491.91
2023-04-22T16:46:57.548Z,98496.47
2023-04-22T16:49:24.769Z,98490.56
2023-04-22T16:51:51.648Z,98492.91
2023-04-22T16:54:18.818Z,98492.56
2023-04-22T16:56:45.764Z,98489.66
2023-04-22T16:59:14.474Z,98496.47
2023-04-22T17:01:42.155Z,98491.03
2023-04-22T17:04:09.476Z,98490.06
2023-04-22T17:06:38.565Z,98489.13
2023-04-22T17:09:07.706Z,98493.50
2023-04-22T17:11:34.546Z,98486.34
2023-04-22T17:14:01.725Z,98489.03
2023-04-22T17:16:28.663Z,98496.44
2023-04-22T17:18:55.906Z,98490.38
2023-04-22T17:21:23.469Z,98494.13
2023-04-22T17:23:50.807Z,98494.41
2023-04-22T17:26:17.701Z,98495.69
2023-04-22T17:28:44.816Z,98500.94
2023-04-22T17:31:12.252Z,98501.94
2023-04-22T17:33:40.932Z,98498.41
2023-04-22T17:36:07.887Z,98503.66
2023-04-22T17:38:35.542Z,98501.69
2023-04-22T17:41:02.710Z,98505.34
2023-04-22T17:43:29.966Z,98512.47
2023-04-22T17:45:56.961Z,98514.47
2023-04-22T17:48:24.149Z,98511.81
2023-04-22T17:50:51.178Z,98518.00
2023-04-22T17:53:18.322Z,98516.72
2023-04-22T17:55:45.234Z,98515.34
2023-04-22T17:58:12.414Z,98526.63
2023-04-22T18:00:39.705Z,98518.34
2023-04-22T18:03:07.855Z,98531.06
2023-04-22T18:05:34.973Z,98525.25
2023-04-22T18:08:03.013Z,98533.44
2023-04-22T18:10:30.923Z,98531.59
2023-04-22T18:12:58.166Z,98532.56
2023-04-22T18:15:25.135Z,98540.44
2023-04-22T18:17:52.441Z,98533.28
2023-04-22T18:20:20.662Z,98534.25
2023-04-22T18:22:49.875Z,98538.41
2023-04-22T18:25:16.798Z,98536.38
2023-04-22T18:27:44.448Z,98536.94
2023-04-22T18:30:11.719Z,98540.06
2023-04-22T18:32:39.078Z,98545.13
2023-04-22T18:35:06.591Z,98539.66
2023-04-22T18:37:34.890Z,98544.88
2023-04-22T18:40:02.730Z,98548.00
2023-04-22T18:42:30.307Z,98546.53
2023-04-22T18:44:57.469Z,98550.56
2023-04-22T18:47:24.614Z,98548.94
2023-04-22T18:49:51.494Z,98551.03
2023-04-22T18:52:18.892Z,98559.34
2023-04-22T18:54:45.759Z,98551.97
2023-04-22T18:57:12.845Z,98560.34
2023-04-22T18:59:39.894Z,98554.50
2023-04-22T19:02:07.151Z,98553.13
2023-04-22T19:04:34.146Z,98558.72
2023-04-22T19:07:01.325Z,98557.50
2023-04-22T19:09:29.216Z,98560.53
2023-04-22T19:11:56.478Z,98557.50
2023-04-22T19:14:23.391Z,98557.16
2023-04-22T19:16:51.443Z,98549.69
2023-04-22T19:19:18.342Z,98556.16
2023-04-22T19:21:45.699Z,98552.22
2023-04-22T19:24:14.355Z,98557.91
2023-04-22T19:26:41.588Z,98548.66
2023-04-22T19:29:08.752Z,98554.19
2023-04-22T19:31:38.913Z,98553.09
2023-04-22T19:34:05.858Z,98559.47
2023-04-22T19:36:33.087Z,98555.47
2023-04-22T19:39:00.064Z,98552.34
2023-04-22T19:41:27.424Z,98555.38
2023-04-22T19:43:56.296Z,98555.56
2023-04-22T19:46:23.404Z,98553.06
2023-04-22T19:48:51.417Z,98547.09
2023-04-22T19:51:19.753Z,98550.72
2023-04-22T19:53:47.021Z,98553.44
2023-04-22T19:56:15.003Z,98555.28
2023-04-22T19:58:42.855Z,98561.66
2023-04-22T20:01:10.302Z,98554.03
2023-04-22T20:03:37.694Z,98562.25
2023-04-22T20:06:05.321Z,98554.59
2023-04-22T20:08:33.041Z,98557.44
2023-04-22T20:11:01.089Z,98558.78
2023-04-22T20:13:28.157Z,98553.03
2023-04-22T20:15:55.547Z,98555.97
2023-04-22T20:18:22.556Z,98552.66
2023-04-22T20:20:51.843Z,98546.75
2023-04-22T20:23:23.449Z,98550.41
2023-04-22T20:25:51.731Z,98551.38
2023-04-22T20:28:19.401Z,98549.78
2023-04-22T20:30:46.822Z,98548.28
2023-04-22T20:33:17.231Z,98554.56
2023-04-22T20:35:46.457Z,98546.91
2023-04-22T20:38:15.169Z,98548.03
2023-04-22T20:40:44.749Z,98544.66
2023-04-22T20:43:11.477Z,98544.94
2023-04-22T20:45:38.661Z,98543.31
2023-04-22T20:48:05.580Z,98539.94
2023-04-22T20:50:33.684Z,98545.31
2023-04-22T20:53:01.262Z,98543.53
2023-04-22T20:55:28.429Z,98531.44
2023-04-22T20:57:55.307Z,98545.31
2023-04-22T21:00:22.712Z,98533.09
2023-04-22T21:02:51.124Z,98540.22
2023-04-22T21:05:19.106Z,98537.66
2023-04-22T21:07:48.476Z,98536.00
2023-04-22T21:10:16.092Z,98538.69
2023-04-22T21:12:43.529Z,98536.19
2023-04-22T21:15:11.459Z,98541.47
2023-04-22T21:17:41.524Z,98538.22
2023-04-22T21:20:09.614Z,98544.56
2023-04-22T21:22:37.555Z,98543.91
2023-04-22T21:25:06.067Z,98542.38
2023-04-22T21:27:33.238Z,98541.56
2023-04-22T21:30:01.204Z,98552.28
2023-04-22T21:32:29.565Z,98548.13
2023-04-22T21:34:56.981Z,98550.78
2023-04-22T21:37:24.180Z,98546.59
2023-04-22T21:39:51.390Z,98547.69
2023-04-22T21:42:18.285Z,98548.81
2023-04-22T21:44:49.771Z,98546.31
2023-04-22T21:47:16.874Z,98549.81
2023-04-22T21:49:46.679Z,98551.78
2023-04-22T21:52:13.544Z,98550.13
2023-04-22T21:54:40.934Z,98545.00
2023-04-22T21:57:08.026Z,98550.25
2023-04-22T21:59:35.154Z,98547.66
2023-04-22T22:02:02.168Z,98550.56
2023-04-22T22:04:29.664Z,98549.88
2023-04-22T22:06:56.710Z,98548.09
2023-04-22T22:09:23.868Z,98545.66
2023-04-22T22:11:50.966Z,98542.28
2023-04-22T22:14:18.148Z,98543.22
2023-04-22T22:16:45.053Z,98538.13
2023-04-22T22:19:13.933Z,98539.16
2023-04-22T22:21:40.766Z,98542.91
2023-04-22T22:24:09.555Z,98541.94
2023-04-22T22:26:36.593Z,98545.38
2023-04-22T22:29:03.802Z,98549.72
2023-04-22T22:31:30.667Z,98550.50
2023-04-22T22:33:58.827Z,98553.22
2023-04-22T22:36:25.736Z,98555.94
2023-04-22T22:38:52.895Z,98549.13
2023-04-22T22:41:19.712Z,98553.53
2023-04-22T22:43:46.868Z,98563.16
2023-04-22T22:46:13.753Z,98555.38
2023-04-22T22:48:41.072Z,98552.81
2023-04-22T22:51:09.506Z,98555.53
2023-04-22T22:53:36.853Z,98559.84
2023-04-22T22:56:03.914Z,98552.00
2023-04-22T22:58:31.386Z,98553.75
2023-04-22T23:00:58.233Z,98552.91
2023-04-22T23:03:25.479Z,98552.84
2023-04-22T23:05:52.476Z,98557.28
2023-04-22T23:08:19.610Z,98554.63
2023-04-22T23:10:46.439Z,98555.38
2023-04-22T23:13:13.588Z,98550.19
2023-04-22T23:15:40.521Z,98550.16
2023-04-22T23:18:09.093Z,98552.84
2023-04-22T23:20:37.294Z,98559.03
2023-04-22T23:23:05.087Z,98551.19
2023-04-22T23:25:32.258Z,98550.31
2023-04-22T23:28:00.048Z,98546.00
2023-04-22T23:30:27.116Z,98546.00
2023-04-22T23:32:57.600Z,98536.34
2023-04-22T23:35:27.499Z,98544.34
2023-04-22T23:37:55.169Z,98536.44
2023-04-22T23:40:22.046Z,98540.88
2023-04-22T23:42:49.168Z,98532.22
2023-04-22T23:45:16.098Z,98527.94
2023-04-22T23:47:43.373Z,98536.63
2023-04-22T23:50:11.064Z,98530.75
2023-04-22T23:52:41.421Z,98533.47
2023-04-22T23:55:13.981Z,98527.66
2023-04-22T23:57:42.089Z,98526.94
